Time;durP1;ratioP1;P1;durP2;ratioP2;P2;SDS_P1;SDS_P2;PMS_P1;PMS_P2;Temp;Humidity;BMP_temperature;BMP_pressure;BME280_temperature;BME280_humidity;BME280_pressure;Samples;Min_cycle;Max_cycle;Signal;HPM_P1;HPM_P2
2021/01/03 00:01:01;;;;;;;66.00;25.37;;;4.00;93.20;;;;;;5011124;28;20042;-75
2021/01/03 00:03:27;;;;;;;62.80;26.20;;;4.00;93.20;;;;;;5010386;28;20046;-74
2021/01/03 00:05:53;;;;;;;69.17;24.53;;;4.00;93.30;;;;;;5010557;28;20048;-75
2021/01/03 00:08:19;;;;;;;60.67;24.00;;;4.00;93.30;;;;;;5010513;28;20064;-74
2021/01/03 00:10:44;;;;;;;70.73;26.77;;;4.00;93.30;;;;;;5010939;28;20034;-74
2021/01/03 00:13:10;;;;;;;56.90;22.53;;;4.10;93.30;;;;;;5010580;28;20403;-75
2021/01/03 00:15:36;;;;;;;63.63;26.30;;;4.10;93.40;;;;;;5010487;28;20053;-75
2021/01/03 00:18:02;;;;;;;60.30;25.17;;;4.10;93.40;;;;;;5010626;28;20055;-75
2021/01/03 00:20:29;;;;;;;67.40;25.47;;;4.10;93.30;;;;;;5010414;28;20042;-74
2021/01/03 00:22:55;;;;;;;62.20;23.93;;;4.10;93.30;;;;;;5009201;28;20046;-74
2021/01/03 00:25:23;;;;;;;63.53;24.70;;;4.10;93.40;;;;;;5010612;28;20044;-75
2021/01/03 00:27:52;;;;;;;64.03;26.13;;;4.10;93.40;;;;;;5012473;28;20068;-75
2021/01/03 00:30:20;;;;;;;63.60;24.50;;;4.20;93.40;;;;;;5014806;28;20069;-75
2021/01/03 00:32:46;;;;;;;60.40;24.90;;;4.10;93.40;;;;;;5013899;28;20030;-74
2021/01/03 00:35:17;;;;;;;61.33;23.87;;;4.20;93.40;;;;;;5014236;28;20056;-75
2021/01/03 00:37:43;;;;;;;68.30;25.13;;;4.20;93.70;;;;;;5013104;28;20471;-75
2021/01/03 00:40:11;;;;;;;68.53;25.43;;;4.20;93.40;;;;;;5014004;28;20064;-75
2021/01/03 00:42:37;;;;;;;58.47;25.20;;;4.20;93.40;;;;;;5014203;28;20058;-75
2021/01/03 00:45:05;;;;;;;56.13;23.03;;;4.30;93.40;;;;;;5013642;28;20065;-74
2021/01/03 00:47:31;;;;;;;63.23;25.20;;;4.30;93.40;;;;;;5012863;28;20134;-75
2021/01/03 00:49:57;;;;;;;67.83;26.57;;;4.30;93.30;;;;;;5012383;28;20124;-74
2021/01/03 00:52:22;;;;;;;72.50;26.63;;;4.30;93.30;;;;;;5013823;28;20120;-75
2021/01/03 00:54:48;;;;;;;64.33;24.23;;;4.20;93.30;;;;;;5012726;28;20129;-75
2021/01/03 00:57:14;;;;;;;67.00;24.90;;;4.20;93.30;;;;;;5013673;28;20045;-75
2021/01/03 00:59:39;;;;;;;63.27;25.17;;;4.30;93.40;;;;;;5012877;28;20026;-75
2021/01/03 01:02:05;;;;;;;70.00;28.07;;;4.20;93.40;;;;;;5013197;28;20491;-74
2021/01/03 01:04:31;;;;;;;64.33;25.73;;;4.20;93.30;;;;;;5013659;28;20068;-75
2021/01/03 01:06:57;;;;;;;68.67;27.17;;;4.20;93.30;;;;;;5045744;28;20030;-75
2021/01/03 01:09:22;;;;;;;66.73;25.53;;;4.20;93.40;;;;;;5012229;28;20491;-74
2021/01/03 01:11:51;;;;;;;71.43;26.83;;;4.20;93.50;;;;;;5013574;28;20030;-75
2021/01/03 01:14:17;;;;;;;63.20;24.57;;;4.20;93.40;;;;;;5013059;28;20103;-74
2021/01/03 01:16:42;;;;;;;66.50;25.10;;;4.20;93.30;;;;;;5013670;28;20124;-74
2021/01/03 01:19:08;;;;;;;68.50;26.07;;;4.20;93.30;;;;;;5012243;28;20041;-75
2021/01/03 01:21:34;;;;;;;66.33;27.20;;;4.20;93.30;;;;;;5013087;28;20046;-74
2021/01/03 01:24:00;;;;;;;69.20;26.63;;;4.20;93.30;;;;;;5013472;28;20052;-75
2021/01/03 01:26:26;;;;;;;70.47;26.23;;;4.20;93.30;;;;;;5012824;28;20124;-74
2021/01/03 01:28:51;;;;;;;59.13;24.30;;;4.10;93.20;;;;;;5013440;28;20048;-74
2021/01/03 01:31:17;;;;;;;73.70;27.10;;;4.10;93.20;;;;;;5013546;28;20186;-75
2021/01/03 01:33:43;;;;;;;76.47;28.60;;;4.10;93.20;;;;;;5012669;28;20040;-74
2021/01/03 01:36:09;;;;;;;69.97;25.67;;;4.00;93.30;;;;;;5013160;28;20038;-75
2021/01/03 01:38:35;;;;;;;68.60;27.13;;;4.00;93.30;;;;;;5012067;28;20037;-75
2021/01/03 01:41:01;;;;;;;75.77;27.73;;;4.00;93.20;;;;;;5012944;28;20573;-74
2021/01/03 01:43:27;;;;;;;77.73;27.93;;;4.00;93.10;;;;;;5013470;28;20061;-74
2021/01/03 01:45:53;;;;;;;68.20;25.67;;;4.00;93.10;;;;;;5011196;28;20128;-74
2021/01/03 01:48:36;;;;;;;79.00;27.53;;;3.90;93.00;;;;;;5011871;28;20042;-74
2021/01/03 01:51:08;;;;;;;72.67;26.47;;;3.80;93.00;;;;;;5012567;28;20048;-74
2021/01/03 01:53:51;;;;;;;74.87;26.43;;;3.80;93.00;;;;;;5044512;28;20198;-74
2021/01/03 01:56:32;;;;;;;79.50;28.97;;;3.70;93.00;;;;;;5012297;28;20047;-74
2021/01/03 01:59:01;;;;;;;;;;;3.70;93.30;;;;;;5028719;28;20495;-74
2021/01/03 02:01:43;;;;;;;80.30;28.93;;;3.70;93.50;;;;;;5044241;28;20343;-74
2021/01/03 02:04:29;;;;;;;89.73;28.77;;;3.70;93.60;;;;;;5012427;28;20096;-74
2021/01/03 02:07:01;;;;;;;76.87;28.37;;;3.70;93.60;;;;;;5044510;28;20034;-74
2021/01/03 02:09:52;;;;;;;74.80;28.13;;;3.70;93.50;;;;;;5012203;28;20065;-74
2021/01/03 02:12:26;;;;;;;74.95;27.13;;;3.70;93.30;;;;;;5011151;28;20513;-74
2021/01/03 02:14:53;;;;;;;91.17;29.33;;;3.70;93.10;;;;;;5011917;28;20073;-74
2021/01/03 02:17:19;;;;;;;91.60;30.10;;;3.60;93.00;;;;;;5011175;28;20117;-74
2021/01/03 02:19:45;;;;;;;81.83;28.70;;;3.50;93.00;;;;;;5012167;28;20436;-74
2021/01/03 02:22:35;;;;;;;71.13;26.23;;;3.40;93.00;;;;;;5012197;28;20030;-74
2021/01/03 02:25:07;;;;;;;104.05;31.45;;;3.30;93.00;;;;;;5011802;28;20030;-74
2021/01/03 02:27:42;;;;;;;91.73;29.27;;;3.30;93.00;;;;;;5012192;28;20030;-74
2021/01/03 02:30:10;;;;;;;118.83;32.70;;;3.20;93.00;;;;;;5012198;28;20045;-74
2021/01/03 02:32:41;;;;;;;118.83;34.57;;;3.20;93.20;;;;;;5012039;28;20057;-74
2021/01/03 02:35:10;;;;;;;110.63;32.73;;;3.10;93.40;;;;;;5011725;28;20034;-74
2021/01/03 02:37:39;;;;;;;107.50;32.90;;;3.20;93.70;;;;;;5012181;28;20053;-74
2021/01/03 02:40:23;;;;;;;104.70;32.10;;;3.20;93.70;;;;;;5010414;28;20045;-74
2021/01/03 02:42:49;;;;;;;101.50;30.10;;;3.20;93.40;;;;;;5011845;28;20529;-74
2021/01/03 02:45:22;;;;;;;112.20;32.63;;;3.20;93.40;;;;;;5011401;28;20133;-74
2021/01/03 02:47:49;;;;;;;116.33;32.70;;;3.20;93.50;;;;;;5012131;28;20065;-74
2021/01/03 02:50:22;;;;;;;113.10;32.53;;;3.20;93.50;;;;;;5009866;28;20038;-73
2021/01/03 02:52:48;;;;;;;109.50;30.67;;;3.20;93.50;;;;;;5011701;28;20116;-74
2021/01/03 02:55:15;;;;;;;98.23;29.03;;;3.20;93.60;;;;;;5011157;28;20491;-74
2021/01/03 02:57:42;;;;;;;89.67;28.67;;;3.20;93.80;;;;;;5010564;28;20038;-74
2021/01/03 03:00:12;;;;;;;93.03;29.60;;;3.20;93.80;;;;;;5011897;28;20045;-74
2021/01/03 03:02:38;;;;;;;86.75;27.60;;;3.30;94.00;;;;;;5011183;28;20056;-74
2021/01/03 03:05:07;;;;;;;87.43;27.17;;;3.40;94.10;;;;;;5011614;28;20495;-74
2021/01/03 03:07:32;;;;;;;77.87;26.07;;;3.40;94.00;;;;;;5011311;28;20410;-74
2021/01/03 03:09:58;;;;;;;93.57;28.87;;;3.40;93.70;;;;;;5011757;28;20037;-74
2021/01/03 03:12:24;;;;;;;89.27;26.90;;;3.40;93.80;;;;;;5011388;28;20045;-74
2021/01/03 03:14:49;;;;;;;76.33;25.53;;;3.50;94.00;;;;;;5010674;28;20034;-74
2021/01/03 03:17:15;;;;;;;82.23;26.50;;;3.50;93.90;;;;;;5010187;28;20050;-74
2021/01/03 03:19:41;;;;;;;82.37;27.50;;;3.50;93.70;;;;;;5011097;28;20040;-74
2021/01/03 03:22:06;;;;;;;83.60;27.07;;;3.40;93.60;;;;;;5011159;28;20475;-74
2021/01/03 03:24:32;;;;;;;90.77;27.03;;;3.40;93.60;;;;;;5011354;28;20034;-74
2021/01/03 03:27:01;;;;;;;79.27;25.57;;;3.40;93.70;;;;;;5011121;28;20470;-74
2021/01/03 03:29:27;;;;;;;84.13;25.40;;;3.40;93.90;;;;;;5011323;28;20034;-74
2021/01/03 03:31:54;;;;;;;81.67;25.07;;;3.40;93.90;;;;;;5009322;28;20073;-73
2021/01/03 03:34:21;;;;;;;71.37;24.87;;;3.40;94.10;;;;;;5009671;28;20117;-74
2021/01/03 03:36:47;;;;;;;76.23;24.40;;;3.50;94.30;;;;;;5010095;28;20042;-74
2021/01/03 03:39:13;;;;;;;67.53;24.07;;;3.50;94.30;;;;;;5009783;28;20446;-74
2021/01/03 03:41:39;;;;;;;72.43;23.87;;;3.60;94.30;;;;;;5011077;28;20125;-74
2021/01/03 03:44:06;;;;;;;69.70;23.33;;;3.70;94.30;;;;;;5010760;28;20057;-74
2021/01/03 03:46:32;;;;;;;67.73;23.73;;;3.70;94.30;;;;;;5010993;28;20109;-74
2021/01/03 03:48:58;;;;;;;64.47;22.47;;;3.80;94.50;;;;;;5010655;28;20531;-73
2021/01/03 03:51:24;;;;;;;62.17;21.97;;;3.80;94.30;;;;;;5009799;28;20374;-74
2021/01/03 03:53:50;;;;;;;64.40;23.37;;;4.00;94.50;;;;;;5010761;28;20041;-74
2021/01/03 03:56:17;;;;;;;62.17;21.37;;;3.90;94.10;;;;;;5010495;28;20057;-74
2021/01/03 03:58:43;;;;;;;58.77;21.53;;;3.90;94.00;;;;;;5010928;28;20042;-74
2021/01/03 04:01:10;;;;;;;59.93;21.60;;;3.90;94.00;;;;;;5042791;28;20096;-74
2021/01/03 04:03:35;;;;;;;54.83;18.93;;;3.80;93.90;;;;;;5012427;28;20042;-74
2021/01/03 04:06:01;;;;;;;59.20;20.03;;;3.80;93.80;;;;;;5014836;28;20045;-74
2021/01/03 04:08:27;;;;;;;60.87;21.10;;;3.80;93.90;;;;;;5014558;28;20415;-74
2021/01/03 04:10:53;;;;;;;57.33;20.23;;;3.80;94.10;;;;;;5013859;28;20069;-74
2021/01/03 04:13:19;;;;;;;52.40;19.50;;;3.80;94.10;;;;;;5014650;28;20042;-74
2021/01/03 04:15:45;;;;;;;51.53;18.80;;;3.80;94.20;;;;;;5012923;28;20042;-74
2021/01/03 04:18:11;;;;;;;49.83;17.80;;;3.90;94.20;;;;;;5014610;28;20046;-74
2021/01/03 04:20:37;;;;;;;55.17;20.90;;;3.90;94.20;;;;;;5014500;28;20038;-74
2021/01/03 04:23:08;;;;;;;52.37;20.20;;;3.90;94.30;;;;;;5013231;28;20092;-74
2021/01/03 04:25:34;;;;;;;54.58;20.73;;;4.00;94.30;;;;;;5014384;28;20037;-74
2021/01/03 04:28:00;;;;;;;60.63;21.37;;;4.00;94.30;;;;;;5014226;28;20041;-74
2021/01/03 04:30:26;;;;;;;52.13;19.60;;;4.00;94.30;;;;;;5014606;28;20034;-74
2021/01/03 04:32:53;;;;;;;52.47;20.23;;;4.10;94.20;;;;;;5014032;28;20402;-74
2021/01/03 04:35:20;;;;;;;48.13;18.93;;;4.10;94.20;;;;;;5014325;28;20121;-74
2021/01/03 04:37:46;;;;;;;53.37;18.83;;;4.10;94.20;;;;;;5013900;28;20045;-74
2021/01/03 04:40:29;;;;;;;50.73;19.10;;;4.10;94.10;;;;;;5014489;28;20116;-74
2021/01/03 04:42:59;;;;;;;50.43;18.70;;;4.10;94.10;;;;;;5013698;28;20041;-74
2021/01/03 04:45:32;;;;;;;49.45;17.73;;;4.10;94.10;;;;;;5014205;28;20112;-74
2021/01/03 04:48:27;;;;;;;46.53;17.30;;;4.10;94.20;;;;;;5013851;28;20049;-75
2021/01/03 04:51:07;;;;;;;45.80;17.90;;;4.10;94.20;;;;;;5012696;28;20044;-74
2021/01/03 04:53:55;;;;;;;45.50;17.17;;;4.10;94.10;;;;;;5013603;28;20148;-74
2021/01/03 04:56:29;;;;;;;44.03;16.63;;;4.00;93.80;;;;;;5012256;28;20038;-74
2021/01/03 04:59:00;;;;;;;48.93;17.93;;;3.90;93.50;;;;;;5014121;28;20046;-75
2021/01/03 05:02:07;;;;;;;46.60;17.08;;;3.80;93.30;;;;;;5013735;28;20033;-74
2021/01/03 05:04:38;;;;;;;51.40;17.70;;;3.70;93.20;;;;;;5002918;28;20045;-74
2021/01/03 05:07:14;;;;;;;43.83;16.80;;;3.60;93.50;;;;;;5014079;28;20046;-74
2021/01/03 05:09:41;;;;;;;46.90;16.57;;;3.50;94.00;;;;;;5045307;28;20128;-74
2021/01/03 05:12:19;;;;;;;42.67;16.77;;;3.60;94.30;;;;;;5013495;28;20057;-74
2021/01/03 05:15:07;;;;;;;42.77;16.30;;;3.60;94.30;;;;;;5012953;28;20041;-74
2021/01/03 05:17:33;;;;;;;42.53;17.40;;;3.70;94.40;;;;;;5013670;28;20137;-74
2021/01/03 05:19:59;;;;;;;37.43;15.73;;;3.80;94.30;;;;;;5012069;28;20384;-75
2021/01/03 05:22:36;;;;;;;39.43;15.70;;;3.80;94.20;;;;;;5013500;28;20030;-74
2021/01/03 05:25:05;;;;;;;37.57;16.20;;;3.80;94.40;;;;;;5013059;28;20042;-75
2021/01/03 05:27:32;;;;;;;37.53;15.87;;;3.80;94.10;;;;;;5012165;28;20038;-75
2021/01/03 05:30:18;;;;;;;34.33;15.83;;;3.90;94.00;;;;;;5011979;28;20053;-74
2021/01/03 05:32:45;;;;;;;35.37;14.97;;;3.90;94.10;;;;;;5013114;28;20115;-75
2021/01/03 05:35:22;;;;;;;29.97;14.17;;;3.90;94.20;;;;;;5012673;28;20046;-75
2021/01/03 05:37:50;;;;;;;33.50;15.03;;;3.90;94.10;;;;;;5013356;28;20560;-75
2021/01/03 05:40:41;;;;;;;31.20;14.50;;;3.90;94.20;;;;;;5012971;28;20033;-75
2021/01/03 05:43:12;;;;;;;;;;;3.90;94.10;;;;;;5013106;28;20108;-74
2021/01/03 05:46:06;;;;;;;29.97;14.17;;;3.90;94.00;;;;;;5011698;28;20294;-75
2021/01/03 05:48:38;;;;;;;33.50;14.93;;;4.00;94.00;;;;;;5011841;28;20042;-75
2021/01/03 05:51:27;;;;;;;31.10;16.10;;;3.90;94.20;;;;;;5011924;28;20030;-75
2021/01/03 05:54:01;;;;;;;31.07;14.97;;;3.90;94.00;;;;;;5012403;28;20026;-75
2021/01/03 05:56:28;;;;;;;28.60;14.30;;;4.00;93.90;;;;;;5012904;28;20030;-75
2021/01/03 05:58:54;;;;;;;32.13;15.87;;;4.00;93.90;;;;;;5012454;28;20034;-75
2021/01/03 06:01:29;;;;;;;28.17;13.73;;;4.00;94.00;;;;;;5013044;28;20410;-75
2021/01/03 06:04:08;;;;;;;25.77;13.20;;;4.00;93.90;;;;;;4995097;28;20041;-75
2021/01/03 06:06:45;;;;;;;28.53;14.57;;;4.00;93.90;;;;;;5012523;28;20048;-75
2021/01/03 06:09:12;;;;;;;28.80;14.00;;;3.90;93.90;;;;;;5012486;28;20483;-75
2021/01/03 06:11:38;;;;;;;25.53;12.73;;;4.00;93.90;;;;;;5012608;28;20060;-75
2021/01/03 06:14:03;;;;;;;24.93;12.77;;;4.00;93.90;;;;;;5012050;28;20518;-75
2021/01/03 06:16:34;;;;;;;26.80;12.83;;;4.00;93.80;;;;;;4994854;28;20038;-75
2021/01/03 06:19:24;;;;;;;26.67;12.27;;;4.00;93.80;;;;;;5012017;28;20466;-75
2021/01/03 06:21:53;;;;;;;22.27;11.07;;;4.00;93.70;;;;;;5005602;28;20533;-75
2021/01/03 06:24:27;;;;;;;25.87;12.77;;;4.00;93.70;;;;;;5011490;28;20056;-75
2021/01/03 06:27:00;;;;;;;25.10;12.00;;;3.90;93.60;;;;;;5011228;28;20410;-75
2021/01/03 06:29:50;;;;;;;26.03;12.23;;;3.90;93.70;;;;;;5011990;28;20069;-75
2021/01/03 06:32:36;;;;;;;22.90;11.23;;;3.90;93.70;;;;;;5011656;28;20045;-75
2021/01/03 06:35:31;;;;;;;22.87;11.77;;;3.90;93.60;;;;;;5010814;28;20514;-75
2021/01/03 06:38:22;;;;;;;24.00;11.57;;;3.90;93.60;;;;;;5011912;28;20123;-76
2021/01/03 06:41:15;;;;;;;24.90;12.13;;;3.90;93.60;;;;;;5011759;28;20570;-75
2021/01/03 06:43:55;;;;;;;26.43;12.90;;;3.80;93.60;;;;;;5010042;28;20124;-75
2021/01/03 06:46:51;;;;;;;25.77;11.98;;;3.80;93.60;;;;;;5011983;28;20065;-75
2021/01/03 06:49:20;;;;;;;27.67;13.20;;;3.80;93.60;;;;;;5010527;28;20068;-75
2021/01/03 06:51:58;;;;;;;27.60;13.00;;;3.80;93.50;;;;;;5011722;28;20528;-75
2021/01/03 06:54:42;;;;;;;29.57;13.07;;;3.80;93.50;;;;;;5011379;28;20091;-75
2021/01/03 06:57:30;;;;;;;28.03;12.53;;;3.90;93.50;;;;;;5010177;28;20414;-74
2021/01/03 07:00:15;;;;;;;27.83;13.40;;;3.80;93.40;;;;;;5011862;28;20038;-75
2021/01/03 07:03:06;;;;;;;29.13;13.30;;;3.80;93.40;;;;;;5011255;28;20044;-75
2021/01/03 07:05:35;;;;;;;29.43;14.07;;;3.80;93.40;;;;;;5005242;28;20057;-75
2021/01/03 07:08:09;;;;;;;28.90;13.60;;;3.90;93.40;;;;;;5010375;28;20048;-75
2021/01/03 07:10:38;;;;;;;27.90;13.17;;;3.80;93.40;;;;;;5010138;28;20038;-75
2021/01/03 07:13:24;;;;;;;26.47;12.20;;;3.80;93.30;;;;;;5009852;28;20112;-75
2021/01/03 07:15:50;;;;;;;27.30;13.47;;;3.80;93.30;;;;;;5011008;28;20454;-75
2021/01/03 07:18:38;;;;;;;26.40;13.30;;;3.80;93.30;;;;;;5011518;28;20034;-75
2021/01/03 07:21:05;;;;;;;28.80;13.07;;;3.80;93.30;;;;;;5011243;28;20037;-75
2021/01/03 07:23:38;;;;;;;30.07;13.97;;;3.80;93.30;;;;;;5009867;28;20037;-75
2021/01/03 07:26:18;;;;;;;25.63;13.07;;;3.70;93.30;;;;;;5010904;28;20384;-75
2021/01/03 07:28:50;;;;;;;25.73;12.52;;;3.70;93.30;;;;;;5011376;28;20042;-75
2021/01/03 07:31:22;;;;;;;29.67;13.13;;;3.70;93.30;;;;;;4993723;28;20206;-75
2021/01/03 07:34:02;;;;;;;25.60;12.93;;;3.70;93.30;;;;;;5011085;28;20510;-75
2021/01/03 07:36:45;;;;;;;26.15;12.10;;;3.70;93.20;;;;;;5008785;28;20083;-75
2021/01/03 07:39:13;;;;;;;26.50;13.23;;;3.70;93.20;;;;;;5010762;28;20388;-71
2021/01/03 07:41:39;;;;;;;25.63;12.83;;;3.80;93.20;;;;;;5010986;28;20399;-75
2021/01/03 07:44:33;;;;;;;23.90;11.87;;;3.70;93.10;;;;;;5011801;28;20041;-75
2021/01/03 07:47:00;;;;;;;21.40;10.93;;;3.70;93.20;;;;;;5009356;28;20038;-75
2021/01/03 07:49:39;;;;;;;20.57;10.37;;;3.70;93.10;;;;;;5011171;28;20037;-75
2021/01/03 07:52:16;;;;;;;21.83;10.73;;;3.70;93.10;;;;;;5042197;28;20056;-75
2021/01/03 07:54:56;;;;;;;17.00;7.77;;;3.70;93.10;;;;;;5042383;28;20046;-75
2021/01/03 07:57:27;;;;;;;20.53;9.83;;;3.60;93.00;;;;;;5010945;28;20406;-76
2021/01/03 07:59:58;;;;;;;20.17;9.77;;;3.70;93.00;;;;;;5011111;28;20045;-75
2021/01/03 08:02:28;;;;;;;19.35;9.85;;;3.70;93.00;;;;;;5010511;28;20057;-75
2021/01/03 08:04:56;;;;;;;20.25;9.48;;;3.70;93.20;;;;;;5010800;28;20066;-75
2021/01/03 08:07:23;;;;;;;19.63;9.83;;;3.70;92.90;;;;;;5010440;28;20041;-75
2021/01/03 08:09:49;;;;;;;19.10;9.37;;;3.70;93.00;;;;;;5011013;28;20037;-75
2021/01/03 08:12:26;;;;;;;18.30;8.70;;;3.70;92.90;;;;;;5042302;28;20383;-75
2021/01/03 08:15:00;;;;;;;19.27;9.30;;;3.70;92.80;;;;;;5008791;28;20038;-75
2021/01/03 08:17:33;;;;;;;18.27;9.47;;;3.70;92.80;;;;;;5010720;28;20099;-75
2021/01/03 08:20:04;;;;;;;19.53;9.63;;;3.70;92.80;;;;;;5010560;28;20113;-75
2021/01/03 08:22:30;;;;;;;21.27;10.33;;;3.70;92.80;;;;;;5010555;28;20227;-75
2021/01/03 08:24:59;;;;;;;18.97;9.33;;;3.70;93.00;;;;;;5010132;28;20033;-73
2021/01/03 08:27:37;;;;;;;17.23;8.73;;;3.70;92.80;;;;;;5010772;28;20029;-75
2021/01/03 08:30:20;;;;;;;18.13;9.13;;;3.80;93.00;;;;;;5010360;28;20038;-75
2021/01/03 08:32:46;;;;;;;21.63;9.27;;;3.80;92.70;;;;;;5010187;28;20403;-72
2021/01/03 08:35:28;;;;;;;20.20;9.30;;;3.80;92.70;;;;;;5009297;28;20030;-75
2021/01/03 08:37:54;;;;;;;19.27;10.10;;;3.80;93.00;;;;;;5010639;28;20042;-75
2021/01/03 08:40:29;;;;;;;16.47;9.03;;;3.80;92.70;;;;;;5010500;28;20037;-75
2021/01/03 08:42:58;;;;;;;17.67;9.33;;;3.80;92.70;;;;;;5010405;28;20041;-75
2021/01/03 08:45:31;;;;;;;17.30;9.13;;;3.90;92.60;;;;;;5010150;28;20046;-75
2021/01/03 08:48:02;;;;;;;17.67;8.63;;;3.90;92.60;;;;;;5043054;28;20476;-75
2021/01/03 08:50:32;;;;;;;15.57;8.47;;;3.90;92.60;;;;;;5012639;28;20115;-75
2021/01/03 08:53:21;;;;;;;16.80;8.70;;;3.90;92.60;;;;;;5014083;28;20046;-75
2021/01/03 08:55:47;;;;;;;16.43;8.53;;;4.00;92.70;;;;;;5013536;28;20049;-75
2021/01/03 08:58:16;;;;;;;14.03;7.50;;;4.00;92.60;;;;;;5014023;28;20042;-75
2021/01/03 09:00:44;;;;;;;16.30;8.03;;;4.00;92.50;;;;;;5013653;28;20088;-75
2021/01/03 09:03:18;;;;;;;14.10;8.17;;;4.00;92.40;;;;;;5013737;28;20038;-75
2021/01/03 09:05:47;;;;;;;13.53;7.37;;;4.10;92.50;;;;;;5013446;28;20042;-75
2021/01/03 09:08:23;;;;;;;15.37;7.03;;;4.00;92.40;;;;;;5012623;28;20046;-75
2021/01/03 09:10:50;;;;;;;15.87;7.27;;;4.10;92.40;;;;;;5013496;28;20128;-75
2021/01/03 09:13:25;;;;;;;12.60;6.53;;;4.10;92.40;;;;;;5013507;28;20395;-75
2021/01/03 09:16:18;;;;;;;13.80;6.43;;;4.20;92.40;;;;;;5013060;28;20383;-75
2021/01/03 09:19:03;;;;;;;12.33;6.27;;;4.20;92.30;;;;;;5013578;28;20041;-76
2021/01/03 09:21:29;;;;;;;13.50;7.00;;;4.30;92.30;;;;;;5008248;28;20454;-75
2021/01/03 09:24:04;;;;;;;11.10;5.83;;;4.30;92.30;;;;;;5013264;28;20042;-75
2021/01/03 09:26:48;;;;;;;11.63;6.37;;;4.40;92.30;;;;;;5012966;28;20046;-75
2021/01/03 09:29:19;;;;;;;12.43;6.07;;;4.40;92.20;;;;;;5011996;28;20112;-71
2021/01/03 09:32:09;;;;;;;11.23;6.20;;;4.50;92.10;;;;;;5013283;28;20034;-75
2021/01/03 09:35:04;;;;;;;11.63;5.75;;;4.60;92.00;;;;;;5012873;28;20122;-75
2021/01/03 09:37:33;;;;;;;11.77;5.40;;;4.70;92.00;;;;;;5009095;28;20042;-76
2021/01/03 09:40:30;;;;;;;9.50;4.83;;;4.70;92.10;;;;;;5012159;28;20062;-75
2021/01/03 09:43:36;;;;;;;9.67;4.40;;;4.90;91.90;;;;;;5011298;28;20507;-75
2021/01/03 09:46:08;;;;;;;9.30;4.63;;;5.20;92.00;;;;;;5011424;28;20034;-75
2021/01/03 09:48:37;;;;;;;10.00;4.80;;;5.50;91.80;;;;;;5013215;28;20040;-75
2021/01/03 09:51:27;;;;;;;9.77;4.83;;;6.00;91.70;;;;;;5012787;28;20133;-75
2021/01/03 09:54:20;;;;;;;9.48;4.50;;;6.60;91.60;;;;;;5012470;28;20045;-75
2021/01/03 09:56:50;;;;;;;9.37;4.33;;;7.20;90.90;;;;;;5010774;28;20022;-75
2021/01/03 09:59:19;;;;;;;9.23;4.80;;;7.60;90.60;;;;;;5009866;28;20077;-75
2021/01/03 10:01:47;;;;;;;10.40;4.80;;;7.80;90.10;;;;;;5010985;28;20252;-75
2021/01/03 10:04:41;;;;;;;10.33;5.07;;;7.80;88.50;;;;;;5010323;28;20042;-75
2021/01/03 10:07:21;;;;;;;9.60;5.10;;;7.60;88.20;;;;;;5012102;28;20046;-75
2021/01/03 10:10:02;;;;;;;8.77;4.77;;;7.50;88.50;;;;;;5012890;28;20554;-75
2021/01/03 10:12:38;;;;;;;9.67;5.07;;;7.50;89.10;;;;;;5011977;28;20105;-76
2021/01/03 10:15:07;;;;;;;8.53;5.10;;;7.70;89.40;;;;;;5011097;28;20050;-75
2021/01/03 10:17:34;;;;;;;9.20;5.00;;;7.90;89.00;;;;;;5010863;28;20056;-75
2021/01/03 10:20:00;;;;;;;9.50;5.33;;;8.00;88.40;;;;;;5009509;28;20049;-75
2021/01/03 10:22:39;;;;;;;9.47;5.50;;;8.00;87.50;;;;;;5010998;28;20038;-75
2021/01/03 10:25:10;;;;;;;9.53;5.20;;;8.10;87.40;;;;;;5008168;28;20104;-76
2021/01/03 10:27:37;;;;;;;9.57;4.93;;;8.10;87.40;;;;;;5010889;28;20128;-75
2021/01/03 10:30:09;;;;;;;10.17;4.70;;;8.10;86.30;;;;;;5010996;28;20076;-76
2021/01/03 10:32:36;;;;;;;11.03;5.03;;;7.90;85.10;;;;;;5010192;28;20061;-75
2021/01/03 10:35:05;;;;;;;9.40;4.30;;;7.80;86.40;;;;;;5009563;28;20038;-76
2021/01/03 10:37:31;;;;;;;8.17;4.27;;;8.00;86.30;;;;;;5009280;28;20030;-75
2021/01/03 10:39:57;;;;;;;8.07;4.10;;;8.40;85.80;;;;;;5010603;28;20395;-75
2021/01/03 10:42:22;;;;;;;6.03;2.90;;;8.60;84.10;;;;;;5010278;28;20030;-76
2021/01/03 10:44:48;;;;;;;5.93;2.77;;;8.60;82.00;;;;;;5010218;28;20053;-75
2021/01/03 10:47:14;;;;;;;5.90;3.00;;;8.50;81.80;;;;;;5011606;28;20038;-76
2021/01/03 10:49:40;;;;;;;6.90;2.90;;;8.50;81.30;;;;;;5010934;28;20037;-75
2021/01/03 10:52:06;;;;;;;5.40;2.20;;;8.60;81.90;;;;;;5011114;28;20095;-76
2021/01/03 10:54:32;;;;;;;5.27;2.30;;;8.50;81.00;;;;;;5011651;28;20388;-76
2021/01/03 10:56:58;;;;;;;4.50;2.13;;;8.20;80.60;;;;;;5011618;28;20044;-76
2021/01/03 10:59:25;;;;;;;5.33;2.33;;;7.80;80.40;;;;;;5010397;28;20033;-75
2021/01/03 11:01:51;;;;;;;4.97;2.10;;;7.50;80.80;;;;;;5010107;28;20132;-76
2021/01/03 11:04:19;;;;;;;5.60;2.40;;;7.30;81.30;;;;;;5011081;28;20442;-76
2021/01/03 11:06:49;;;;;;;5.43;2.20;;;7.10;81.80;;;;;;5010433;28;20084;-76
2021/01/03 11:09:16;;;;;;;4.50;1.97;;;7.00;82.30;;;;;;5011288;28;20121;-76
2021/01/03 11:11:42;;;;;;;5.03;2.17;;;7.00;82.30;;;;;;5011313;28;20049;-76
2021/01/03 11:14:08;;;;;;;4.87;1.90;;;7.00;81.90;;;;;;5009730;28;20460;-76
2021/01/03 11:16:40;;;;;;;5.00;2.10;;;6.90;81.80;;;;;;5009997;28;20185;-76
2021/01/03 11:19:11;;;;;;;4.67;2.20;;;6.90;82.10;;;;;;4993698;28;20108;-76
2021/01/03 11:21:37;;;;;;;4.67;2.00;;;6.90;82.00;;;;;;5011156;28;20093;-76
2021/01/03 11:24:05;;;;;;;5.30;2.10;;;7.00;81.40;;;;;;5011341;28;20034;-76
2021/01/03 11:26:34;;;;;;;5.30;2.10;;;6.90;81.10;;;;;;5010854;28;20042;-75
2021/01/03 11:29:01;;;;;;;6.97;2.30;;;6.80;80.80;;;;;;5011363;28;20060;-75
2021/01/03 11:31:37;;;;;;;5.30;2.00;;;6.70;80.20;;;;;;5009856;28;20491;-76
2021/01/03 11:34:03;;;;;;;4.87;2.20;;;6.50;80.30;;;;;;5010845;28;20088;-76
2021/01/03 11:36:30;;;;;;;5.43;2.20;;;6.40;80.10;;;;;;5009667;28;20058;-75
2021/01/03 11:38:58;;;;;;;6.80;2.30;;;6.30;80.70;;;;;;5010728;28;20053;-76
2021/01/03 11:41:24;;;;;;;6.27;2.17;;;6.20;80.80;;;;;;5011256;28;20138;-76
2021/01/03 11:43:50;;;;;;;4.90;2.10;;;6.10;80.70;;;;;;5009293;28;20590;-75
2021/01/03 11:46:21;;;;;;;5.40;2.40;;;6.00;80.60;;;;;;5010855;28;20499;-75
2021/01/03 11:48:47;;;;;;;5.97;2.72;;;6.00;81.10;;;;;;5011236;28;20034;-76
2021/01/03 11:51:13;;;;;;;5.90;2.70;;;6.00;81.40;;;;;;5010690;28;20092;-76
2021/01/03 11:53:39;;;;;;;8.13;3.23;;;6.00;81.50;;;;;;5010773;28;20172;-76
2021/01/03 11:56:05;;;;;;;6.60;3.10;;;5.90;81.70;;;;;;5010549;28;20128;-76
2021/01/03 11:58:31;;;;;;;8.30;3.13;;;5.80;81.90;;;;;;5009599;28;20037;-76
2021/01/03 12:00:57;;;;;;;7.00;3.00;;;5.80;82.20;;;;;;5009757;28;20042;-76
2021/01/03 12:03:22;;;;;;;7.57;3.00;;;5.70;82.60;;;;;;5009263;28;20129;-76
2021/01/03 12:05:48;;;;;;;6.50;2.93;;;5.80;83.30;;;;;;5010800;28;20052;-76
2021/01/03 12:08:15;;;;;;;5.87;2.60;;;6.00;84.00;;;;;;5010510;28;20038;-76
2021/01/03 12:10:41;;;;;;;7.73;3.27;;;6.40;84.50;;;;;;5011023;28;20034;-75
2021/01/03 12:13:06;;;;;;;7.90;3.00;;;6.70;84.10;;;;;;5010412;28;20056;-76
2021/01/03 12:15:33;;;;;;;7.23;2.70;;;6.90;83.60;;;;;;5010180;28;20084;-75
2021/01/03 12:17:59;;;;;;;6.37;2.90;;;7.10;83.00;;;;;;5010818;28;20042;-75
2021/01/03 12:20:25;;;;;;;6.00;2.73;;;7.10;82.20;;;;;;5010552;28;20034;-75
2021/01/03 12:22:51;;;;;;;6.73;2.50;;;7.10;82.10;;;;;;5009931;28;20042;-75
2021/01/03 12:25:18;;;;;;;5.07;2.27;;;7.00;81.50;;;;;;5014591;28;20030;-75
2021/01/03 12:27:45;;;;;;;4.83;1.80;;;6.90;81.00;;;;;;5013518;28;20042;-76
2021/01/03 12:30:12;;;;;;;7.63;2.93;;;6.60;80.80;;;;;;5012529;28;20104;-75
2021/01/03 12:32:39;;;;;;;5.03;1.83;;;6.50;81.30;;;;;;5013473;28;20056;-75
2021/01/03 12:35:07;;;;;;;3.90;1.60;;;6.30;81.40;;;;;;5045296;28;20054;-74
2021/01/03 12:37:32;;;;;;;4.60;1.80;;;6.20;81.60;;;;;;5012713;28;20037;-75
2021/01/03 12:39:58;;;;;;;4.87;1.80;;;6.10;81.80;;;;;;5013578;28;20438;-75
2021/01/03 12:42:24;;;;;;;4.03;1.70;;;6.00;81.90;;;;;;5013777;28;20096;-76
2021/01/03 12:44:50;;;;;;;5.03;1.80;;;5.80;82.00;;;;;;5013174;28;20042;-76
2021/01/03 12:47:18;;;;;;;4.10;1.70;;;5.80;82.10;;;;;;5045929;28;20137;-73
2021/01/03 12:49:44;;;;;;;4.50;1.80;;;5.70;82.30;;;;;;4996282;28;20037;-74
2021/01/03 12:52:10;;;;;;;5.50;1.60;;;5.60;82.30;;;;;;5015187;28;20120;-74
2021/01/03 12:54:36;;;;;;;7.07;2.10;;;5.60;82.40;;;;;;5033263;28;20075;-76
2021/01/03 12:57:02;;;;;;;5.30;1.87;;;5.50;82.40;;;;;;5033316;28;20453;-75
2021/01/03 12:59:28;;;;;;;5.20;1.80;;;5.50;82.40;;;;;;5031855;28;20037;-76
2021/01/03 13:01:54;;;;;;;5.33;1.97;;;5.40;82.40;;;;;;5033358;28;20050;-76
2021/01/03 13:04:20;;;;;;;5.70;2.07;;;5.40;82.30;;;;;;5031433;28;20617;-76